Main page
METAR-TAF:

METAR-TAF

Airports :

Ben Gurion Airport

Tel Aviv / Ben Gurion, Israel

latitude: 32-00N, longitude: 034-54E, elevation: 40 m

Current weather observation

The report was made 29 minutes ago, at 07:20 UTC
Wind 3 kt from variable directions
Temperature 31°C
Humidity 29%
Pressure 1014 hPa
Visibility 10 km or more
no clouds below 1500 m and no cumulonimbus

METAR: LLBG 260720Z VRB03KT CAVOK 31/11 Q1014 NOSIG

Time: 10:49 (07:49 UTC)

Forecast

The report was made 2 hours and 45 minutes ago, at 05:04 UTC
Forecast valid from 26 at 06 UTC to 27 at 06 UTC
Wind 4 kt from variable directions
Visibility 10 km or more
no clouds below 1500 m and no cumulonimbus
Becoming
from 26 at 07 UTC to 26 at 09 UTC
Wind 15 kt from the North/Northwest
Becoming
from 26 at 18 UTC to 26 at 20 UTC
Wind 4 kt from variable directions
Visibility 10 km or more
Few clouds at a height of 3000 ft

TAF: LLBG 260504Z 2606/2706 VRB04KT CAVOK BECMG 2607/2609 34015KT BECMG 2618/2620 VRB04KT 9999 FEW030 TX34/2612Z TN19/2704Z

Weather observations and forecasts of more than 4000 airports (METAR and TAF reports).

The available stations are represented by yellow and red dots on the map.

Hover mouse over dot to see the name of the station.

Then click to see weather observations and forecasts.

To change the map : click on the green buttons with a black cross to zoom in, on the green button with a dash to zoom out, or on the green arrows for adjacent maps.


METAR-TAF: